sensor_id;sensor_type;location;lat;lon;timestamp;P1;durP1;ratioP1;P2;durP2;ratioP2
5475;SDS011;2760;50.000;9.194;2023-08-31T00:01:04;2.70;;;2.50;;
5475;SDS011;2760;50.000;9.194;2023-08-31T00:03:33;2.60;;;2.40;;
5475;SDS011;2760;50.000;9.194;2023-08-31T00:06:01;2.73;;;2.37;;
5475;SDS011;2760;50.000;9.194;2023-08-31T00:08:28;3.17;;;2.57;;
5475;SDS011;2760;50.000;9.194;2023-08-31T00:10:56;2.80;;;2.60;;
5475;SDS011;2760;50.000;9.194;2023-08-31T00:13:23;8.67;;;3.00;;
5475;SDS011;2760;50.000;9.194;2023-08-31T00:15:53;3.00;;;2.70;;
5475;SDS011;2760;50.000;9.194;2023-08-31T00:18:22;2.60;;;2.10;;
5475;SDS011;2760;50.000;9.194;2023-08-31T00:20:50;5.33;;;2.47;;
5475;SDS011;2760;50.000;9.194;2023-08-31T00:23:18;7.50;;;3.10;;
5475;SDS011;2760;50.000;9.194;2023-08-31T00:25:45;3.80;;;2.47;;
5475;SDS011;2760;50.000;9.194;2023-08-31T00:28:13;4.10;;;3.10;;
5475;SDS011;2760;50.000;9.194;2023-08-31T00:30:40;3.30;;;3.00;;
5475;SDS011;2760;50.000;9.194;2023-08-31T00:33:09;2.87;;;2.40;;
5475;SDS011;2760;50.000;9.194;2023-08-31T00:35:37;4.33;;;2.60;;
5475;SDS011;2760;50.000;9.194;2023-08-31T00:38:10;6.30;;;2.93;;
5475;SDS011;2760;50.000;9.194;2023-08-31T00:40:41;2.80;;;2.60;;
5475;SDS011;2760;50.000;9.194;2023-08-31T00:43:09;3.63;;;2.90;;
5475;SDS011;2760;50.000;9.194;2023-08-31T00:45:37;3.20;;;2.80;;
5475;SDS011;2760;50.000;9.194;2023-08-31T00:48:05;3.73;;;3.17;;
5475;SDS011;2760;50.000;9.194;2023-08-31T00:50:33;8.40;;;3.20;;
5475;SDS011;2760;50.000;9.194;2023-08-31T00:53:01;4.90;;;3.13;;
5475;SDS011;2760;50.000;9.194;2023-08-31T00:55:32;3.57;;;3.27;;
5475;SDS011;2760;50.000;9.194;2023-08-31T00:58:00;2.60;;;2.40;;
5475;SDS011;2760;50.000;9.194;2023-08-31T01:00:32;4.63;;;4.10;;
5475;SDS011;2760;50.000;9.194;2023-08-31T01:03:12;3.60;;;2.93;;
5475;SDS011;2760;50.000;9.194;2023-08-31T01:05:44;6.77;;;3.30;;
5475;SDS011;2760;50.000;9.194;2023-08-31T01:08:22;3.47;;;3.17;;
5475;SDS011;2760;50.000;9.194;2023-08-31T01:11:00;3.20;;;2.90;;
5475;SDS011;2760;50.000;9.194;2023-08-31T01:13:34;7.27;;;3.37;;
5475;SDS011;2760;50.000;9.194;2023-08-31T01:16:03;5.20;;;3.20;;
5475;SDS011;2760;50.000;9.194;2023-08-31T01:18:33;4.80;;;3.73;;
5475;SDS011;2760;50.000;9.194;2023-08-31T01:21:05;3.23;;;3.00;;
5475;SDS011;2760;50.000;9.194;2023-08-31T01:26:24;4.70;;;4.10;;
5475;SDS011;2760;50.000;9.194;2023-08-31T01:28:52;3.87;;;3.33;;
5475;SDS011;2760;50.000;9.194;2023-08-31T01:31:21;5.50;;;4.07;;
5475;SDS011;2760;50.000;9.194;2023-08-31T01:33:48;6.30;;;3.60;;
5475;SDS011;2760;50.000;9.194;2023-08-31T01:36:17;6.03;;;4.73;;
5475;SDS011;2760;50.000;9.194;2023-08-31T01:38:51;3.90;;;3.60;;
5475;SDS011;2760;50.000;9.194;2023-08-31T01:41:25;4.17;;;3.77;;
5475;SDS011;2760;50.000;9.194;2023-08-31T01:43:55;3.67;;;3.13;;
5475;SDS011;2760;50.000;9.194;2023-08-31T01:46:22;7.37;;;3.57;;
5475;SDS011;2760;50.000;9.194;2023-08-31T01:48:51;7.80;;;4.20;;
5475;SDS011;2760;50.000;9.194;2023-08-31T01:51:18;5.30;;;4.40;;
5475;SDS011;2760;50.000;9.194;2023-08-31T01:53:45;4.60;;;3.30;;
5475;SDS011;2760;50.000;9.194;2023-08-31T01:56:12;4.67;;;3.67;;
5475;SDS011;2760;50.000;9.194;2023-08-31T01:58:41;3.83;;;3.47;;
5475;SDS011;2760;50.000;9.194;2023-08-31T02:01:08;4.13;;;3.50;;
5475;SDS011;2760;50.000;9.194;2023-08-31T02:03:35;5.20;;;3.90;;
5475;SDS011;2760;50.000;9.194;2023-08-31T02:06:02;5.33;;;4.07;;
5475;SDS011;2760;50.000;9.194;2023-08-31T02:08:30;3.37;;;3.07;;
5475;SDS011;2760;50.000;9.194;2023-08-31T02:10:58;4.20;;;3.40;;
5475;SDS011;2760;50.000;9.194;2023-08-31T02:13:25;6.43;;;4.13;;
5475;SDS011;2760;50.000;9.194;2023-08-31T02:15:53;4.33;;;3.93;;
5475;SDS011;2760;50.000;9.194;2023-08-31T02:18:20;4.40;;;3.50;;
5475;SDS011;2760;50.000;9.194;2023-08-31T02:20:47;4.13;;;3.20;;
5475;SDS011;2760;50.000;9.194;2023-08-31T02:23:17;3.80;;;3.50;;
5475;SDS011;2760;50.000;9.194;2023-08-31T02:25:44;4.70;;;4.07;;
5475;SDS011;2760;50.000;9.194;2023-08-31T02:28:13;6.53;;;4.17;;
5475;SDS011;2760;50.000;9.194;2023-08-31T02:30:43;8.73;;;4.10;;
5475;SDS011;2760;50.000;9.194;2023-08-31T02:33:12;5.77;;;4.23;;
5475;SDS011;2760;50.000;9.194;2023-08-31T02:35:39;4.87;;;4.37;;
5475;SDS011;2760;50.000;9.194;2023-08-31T02:38:06;5.70;;;4.77;;
5475;SDS011;2760;50.000;9.194;2023-08-31T02:40:34;5.60;;;4.50;;
5475;SDS011;2760;50.000;9.194;2023-08-31T02:43:01;5.80;;;4.60;;
5475;SDS011;2760;50.000;9.194;2023-08-31T02:45:28;5.40;;;4.50;;
5475;SDS011;2760;50.000;9.194;2023-08-31T02:47:55;6.37;;;4.60;;
5475;SDS011;2760;50.000;9.194;2023-08-31T02:50:23;7.60;;;4.47;;
5475;SDS011;2760;50.000;9.194;2023-08-31T02:52:50;6.30;;;4.37;;
5475;SDS011;2760;50.000;9.194;2023-08-31T02:55:17;8.50;;;4.20;;
5475;SDS011;2760;50.000;9.194;2023-08-31T02:57:44;7.40;;;5.50;;
5475;SDS011;2760;50.000;9.194;2023-08-31T03:00:12;6.30;;;4.23;;
5475;SDS011;2760;50.000;9.194;2023-08-31T03:02:40;8.93;;;5.77;;
5475;SDS011;2760;50.000;9.194;2023-08-31T03:05:09;5.07;;;4.63;;
5475;SDS011;2760;50.000;9.194;2023-08-31T03:07:37;10.93;;;5.43;;
5475;SDS011;2760;50.000;9.194;2023-08-31T03:10:05;12.53;;;4.63;;
5475;SDS011;2760;50.000;9.194;2023-08-31T03:12:33;8.47;;;6.20;;
5475;SDS011;2760;50.000;9.194;2023-08-31T03:15:00;9.20;;;5.33;;
5475;SDS011;2760;50.000;9.194;2023-08-31T03:17:27;8.10;;;4.80;;
5475;SDS011;2760;50.000;9.194;2023-08-31T03:19:54;6.40;;;4.93;;
5475;SDS011;2760;50.000;9.194;2023-08-31T03:22:21;8.40;;;4.87;;
5475;SDS011;2760;50.000;9.194;2023-08-31T03:24:50;7.53;;;5.37;;
5475;SDS011;2760;50.000;9.194;2023-08-31T03:27:17;6.23;;;4.60;;
5475;SDS011;2760;50.000;9.194;2023-08-31T03:29:44;7.30;;;4.80;;
5475;SDS011;2760;50.000;9.194;2023-08-31T03:32:11;7.57;;;5.40;;
5475;SDS011;2760;50.000;9.194;2023-08-31T03:34:38;8.87;;;6.00;;
5475;SDS011;2760;50.000;9.194;2023-08-31T03:37:06;13.80;;;5.70;;
5475;SDS011;2760;50.000;9.194;2023-08-31T03:39:34;6.90;;;5.23;;
5475;SDS011;2760;50.000;9.194;2023-08-31T03:42:03;7.30;;;5.67;;
5475;SDS011;2760;50.000;9.194;2023-08-31T03:44:31;7.10;;;6.03;;
5475;SDS011;2760;50.000;9.194;2023-08-31T03:46:58;8.27;;;6.20;;
5475;SDS011;2760;50.000;9.194;2023-08-31T03:49:25;8.20;;;5.47;;
5475;SDS011;2760;50.000;9.194;2023-08-31T03:51:52;8.60;;;5.20;;
5475;SDS011;2760;50.000;9.194;2023-08-31T03:54:19;5.73;;;5.13;;
5475;SDS011;2760;50.000;9.194;2023-08-31T03:56:46;8.00;;;5.83;;
5475;SDS011;2760;50.000;9.194;2023-08-31T03:59:15;6.93;;;5.90;;
5475;SDS011;2760;50.000;9.194;2023-08-31T04:01:43;7.83;;;5.17;;
5475;SDS011;2760;50.000;9.194;2023-08-31T04:04:11;8.43;;;5.70;;
5475;SDS011;2760;50.000;9.194;2023-08-31T04:06:43;9.50;;;5.50;;
5475;SDS011;2760;50.000;9.194;2023-08-31T04:09:10;8.60;;;5.43;;
5475;SDS011;2760;50.000;9.194;2023-08-31T04:11:37;11.03;;;5.70;;
5475;SDS011;2760;50.000;9.194;2023-08-31T04:14:04;9.43;;;6.17;;
5475;SDS011;2760;50.000;9.194;2023-08-31T04:16:33;9.40;;;5.23;;
5475;SDS011;2760;50.000;9.194;2023-08-31T04:19:00;10.03;;;5.50;;
5475;SDS011;2760;50.000;9.194;2023-08-31T04:21:27;11.10;;;5.77;;
5475;SDS011;2760;50.000;9.194;2023-08-31T04:23:54;11.63;;;7.07;;
5475;SDS011;2760;50.000;9.194;2023-08-31T04:26:21;7.93;;;5.97;;
5475;SDS011;2760;50.000;9.194;2023-08-31T04:28:49;8.33;;;7.07;;
5475;SDS011;2760;50.000;9.194;2023-08-31T04:31:16;12.07;;;7.80;;
5475;SDS011;2760;50.000;9.194;2023-08-31T04:33:47;7.57;;;6.43;;
5475;SDS011;2760;50.000;9.194;2023-08-31T04:36:18;11.63;;;8.00;;
5475;SDS011;2760;50.000;9.194;2023-08-31T04:38:46;11.70;;;6.77;;
5475;SDS011;2760;50.000;9.194;2023-08-31T04:41:14;9.30;;;7.13;;
5475;SDS011;2760;50.000;9.194;2023-08-31T04:43:43;11.03;;;7.83;;
5475;SDS011;2760;50.000;9.194;2023-08-31T04:46:13;8.50;;;6.70;;
5475;SDS011;2760;50.000;9.194;2023-08-31T04:48:40;8.50;;;7.53;;
5475;SDS011;2760;50.000;9.194;2023-08-31T04:51:09;13.93;;;8.40;;
5475;SDS011;2760;50.000;9.194;2023-08-31T04:53:54;10.13;;;7.70;;
5475;SDS011;2760;50.000;9.194;2023-08-31T04:56:21;12.63;;;8.27;;
5475;SDS011;2760;50.000;9.194;2023-08-31T04:58:48;17.70;;;9.67;;
5475;SDS011;2760;50.000;9.194;2023-08-31T05:01:18;14.00;;;8.40;;
5475;SDS011;2760;50.000;9.194;2023-08-31T05:03:45;12.73;;;9.00;;
5475;SDS011;2760;50.000;9.194;2023-08-31T05:06:13;10.90;;;8.30;;
5475;SDS011;2760;50.000;9.194;2023-08-31T05:08:40;9.67;;;8.63;;
5475;SDS011;2760;50.000;9.194;2023-08-31T05:11:07;16.47;;;8.00;;
5475;SDS011;2760;50.000;9.194;2023-08-31T05:13:34;12.50;;;9.10;;
5475;SDS011;2760;50.000;9.194;2023-08-31T05:16:02;18.40;;;9.70;;
5475;SDS011;2760;50.000;9.194;2023-08-31T05:18:30;11.47;;;8.63;;
5475;SDS011;2760;50.000;9.194;2023-08-31T05:20:57;12.10;;;8.47;;
5475;SDS011;2760;50.000;9.194;2023-08-31T05:23:28;14.10;;;8.80;;
5475;SDS011;2760;50.000;9.194;2023-08-31T05:25:55;12.60;;;9.80;;
5475;SDS011;2760;50.000;9.194;2023-08-31T05:28:22;11.70;;;8.63;;
5475;SDS011;2760;50.000;9.194;2023-08-31T05:30:52;16.13;;;8.97;;
5475;SDS011;2760;50.000;9.194;2023-08-31T05:33:20;16.30;;;9.43;;
5475;SDS011;2760;50.000;9.194;2023-08-31T05:35:47;13.60;;;8.67;;
5475;SDS011;2760;50.000;9.194;2023-08-31T05:38:14;12.57;;;9.10;;
5475;SDS011;2760;50.000;9.194;2023-08-31T05:40:43;17.93;;;8.77;;
5475;SDS011;2760;50.000;9.194;2023-08-31T05:43:11;13.33;;;8.80;;
5475;SDS011;2760;50.000;9.194;2023-08-31T05:45:37;11.60;;;9.50;;
5475;SDS011;2760;50.000;9.194;2023-08-31T05:48:04;8.47;;;7.53;;
5475;SDS011;2760;50.000;9.194;2023-08-31T05:50:32;16.93;;;8.03;;
5475;SDS011;2760;50.000;9.194;2023-08-31T05:52:59;10.30;;;9.20;;
5475;SDS011;2760;50.000;9.194;2023-08-31T05:55:26;17.97;;;9.57;;
5475;SDS011;2760;50.000;9.194;2023-08-31T05:57:54;14.17;;;9.70;;
5475;SDS011;2760;50.000;9.194;2023-08-31T06:00:21;10.27;;;8.30;;
5475;SDS011;2760;50.000;9.194;2023-08-31T06:02:48;11.37;;;8.20;;
5475;SDS011;2760;50.000;9.194;2023-08-31T06:05:15;16.17;;;8.67;;
5475;SDS011;2760;50.000;9.194;2023-08-31T06:07:42;13.50;;;8.23;;
5475;SDS011;2760;50.000;9.194;2023-08-31T06:13:15;12.10;;;8.93;;
5475;SDS011;2760;50.000;9.194;2023-08-31T06:15:42;9.40;;;7.30;;
5475;SDS011;2760;50.000;9.194;2023-08-31T06:18:11;22.87;;;8.90;;
5475;SDS011;2760;50.000;9.194;2023-08-31T06:20:38;20.40;;;9.07;;
5475;SDS011;2760;50.000;9.194;2023-08-31T06:23:05;46.83;;;8.83;;
5475;SDS011;2760;50.000;9.194;2023-08-31T06:29:02;16.33;;;8.17;;
5475;SDS011;2760;50.000;9.194;2023-08-31T06:31:29;10.70;;;7.03;;
5475;SDS011;2760;50.000;9.194;2023-08-31T06:33:56;25.73;;;8.40;;
5475;SDS011;2760;50.000;9.194;2023-08-31T06:36:25;25.90;;;9.33;;
5475;SDS011;2760;50.000;9.194;2023-08-31T06:38:52;10.47;;;7.00;;
5475;SDS011;2760;50.000;9.194;2023-08-31T06:41:19;8.73;;;5.47;;
5475;SDS011;2760;50.000;9.194;2023-08-31T06:43:47;13.70;;;6.17;;
5475;SDS011;2760;50.000;9.194;2023-08-31T06:46:15;14.00;;;6.00;;
5475;SDS011;2760;50.000;9.194;2023-08-31T06:48:42;9.10;;;5.80;;
5475;SDS011;2760;50.000;9.194;2023-08-31T06:51:09;16.37;;;6.10;;
5475;SDS011;2760;50.000;9.194;2023-08-31T06:53:36;11.20;;;5.83;;
5475;SDS011;2760;50.000;9.194;2023-08-31T06:56:03;9.63;;;5.70;;
5475;SDS011;2760;50.000;9.194;2023-08-31T06:58:30;12.60;;;5.60;;
5475;SDS011;2760;50.000;9.194;2023-08-31T07:00:58;9.63;;;5.50;;
5475;SDS011;2760;50.000;9.194;2023-08-31T07:03:26;12.37;;;5.40;;
5475;SDS011;2760;50.000;9.194;2023-08-31T07:05:53;6.27;;;5.00;;
5475;SDS011;2760;50.000;9.194;2023-08-31T07:08:21;11.90;;;4.60;;
5475;SDS011;2760;50.000;9.194;2023-08-31T07:10:49;9.93;;;4.67;;
5475;SDS011;2760;50.000;9.194;2023-08-31T07:13:17;8.07;;;4.20;;
5475;SDS011;2760;50.000;9.194;2023-08-31T07:15:44;12.10;;;5.47;;
5475;SDS011;2760;50.000;9.194;2023-08-31T07:18:15;8.50;;;4.50;;
5475;SDS011;2760;50.000;9.194;2023-08-31T07:20:43;13.90;;;4.93;;
5475;SDS011;2760;50.000;9.194;2023-08-31T07:23:12;7.00;;;4.60;;
5475;SDS011;2760;50.000;9.194;2023-08-31T07:25:39;8.43;;;5.00;;
5475;SDS011;2760;50.000;9.194;2023-08-31T07:28:07;13.23;;;3.83;;
5475;SDS011;2760;50.000;9.194;2023-08-31T07:30:34;10.43;;;3.73;;
5475;SDS011;2760;50.000;9.194;2023-08-31T07:33:02;5.13;;;3.53;;
5475;SDS011;2760;50.000;9.194;2023-08-31T07:35:29;9.80;;;4.00;;
5475;SDS011;2760;50.000;9.194;2023-08-31T07:37:58;5.57;;;3.00;;
5475;SDS011;2760;50.000;9.194;2023-08-31T07:40:25;6.47;;;3.43;;
5475;SDS011;2760;50.000;9.194;2023-08-31T07:42:52;13.30;;;3.87;;
5475;SDS011;2760;50.000;9.194;2023-08-31T07:45:19;10.20;;;3.20;;
5475;SDS011;2760;50.000;9.194;2023-08-31T07:47:46;9.67;;;3.00;;
5475;SDS011;2760;50.000;9.194;2023-08-31T07:50:13;19.00;;;4.00;;
5475;SDS011;2760;50.000;9.194;2023-08-31T07:52:40;9.87;;;3.67;;
5475;SDS011;2760;50.000;9.194;2023-08-31T07:55:09;6.40;;;3.10;;
5475;SDS011;2760;50.000;9.194;2023-08-31T07:57:36;11.60;;;3.50;;
5475;SDS011;2760;50.000;9.194;2023-08-31T08:00:04;8.87;;;3.30;;
5475;SDS011;2760;50.000;9.194;2023-08-31T08:02:37;8.30;;;4.23;;
5475;SDS011;2760;50.000;9.194;2023-08-31T08:05:05;5.00;;;3.07;;
5475;SDS011;2760;50.000;9.194;2023-08-31T08:07:33;17.03;;;8.20;;
5475;SDS011;2760;50.000;9.194;2023-08-31T08:10:00;6.07;;;3.47;;
5475;SDS011;2760;50.000;9.194;2023-08-31T08:12:29;5.70;;;2.67;;
5475;SDS011;2760;50.000;9.194;2023-08-31T08:15:03;6.83;;;3.10;;
5475;SDS011;2760;50.000;9.194;2023-08-31T08:17:32;27.60;;;4.80;;
5475;SDS011;2760;50.000;9.194;2023-08-31T08:19:59;4.90;;;3.03;;
5475;SDS011;2760;50.000;9.194;2023-08-31T08:22:40;23.73;;;5.50;;
5475;SDS011;2760;50.000;9.194;2023-08-31T08:25:07;9.53;;;3.10;;
5475;SDS011;2760;50.000;9.194;2023-08-31T08:27:36;13.70;;;3.40;;
5475;SDS011;2760;50.000;9.194;2023-08-31T08:30:05;7.67;;;3.33;;
5475;SDS011;2760;50.000;9.194;2023-08-31T08:32:33;3.80;;;2.67;;
5475;SDS011;2760;50.000;9.194;2023-08-31T08:35:00;10.80;;;3.10;;
5475;SDS011;2760;50.000;9.194;2023-08-31T08:37:27;7.33;;;2.97;;
5475;SDS011;2760;50.000;9.194;2023-08-31T08:39:55;7.70;;;3.27;;
5475;SDS011;2760;50.000;9.194;2023-08-31T08:42:23;16.57;;;3.13;;
5475;SDS011;2760;50.000;9.194;2023-08-31T08:44:54;11.90;;;3.50;;
5475;SDS011;2760;50.000;9.194;2023-08-31T08:47:23;6.03;;;3.27;;
5475;SDS011;2760;50.000;9.194;2023-08-31T08:49:51;12.80;;;3.70;;
5475;SDS011;2760;50.000;9.194;2023-08-31T08:52:20;5.33;;;3.37;;
5475;SDS011;2760;50.000;9.194;2023-08-31T08:54:49;9.07;;;2.90;;
5475;SDS011;2760;50.000;9.194;2023-08-31T08:57:22;8.50;;;2.87;;
5475;SDS011;2760;50.000;9.194;2023-08-31T08:59:49;8.30;;;3.20;;
5475;SDS011;2760;50.000;9.194;2023-08-31T09:02:17;5.50;;;3.63;;
5475;SDS011;2760;50.000;9.194;2023-08-31T09:04:44;9.23;;;2.50;;
5475;SDS011;2760;50.000;9.194;2023-08-31T09:07:12;8.73;;;2.97;;
5475;SDS011;2760;50.000;9.194;2023-08-31T09:09:48;5.10;;;3.20;;
5475;SDS011;2760;50.000;9.194;2023-08-31T09:12:16;5.40;;;2.90;;
5475;SDS011;2760;50.000;9.194;2023-08-31T09:14:43;8.37;;;3.03;;
5475;SDS011;2760;50.000;9.194;2023-08-31T09:17:23;5.10;;;2.70;;
5475;SDS011;2760;50.000;9.194;2023-08-31T09:19:58;5.63;;;2.90;;
5475;SDS011;2760;50.000;9.194;2023-08-31T09:22:26;5.73;;;2.43;;
5475;SDS011;2760;50.000;9.194;2023-08-31T09:24:53;4.27;;;2.23;;
5475;SDS011;2760;50.000;9.194;2023-08-31T09:27:20;5.10;;;3.20;;
5475;SDS011;2760;50.000;9.194;2023-08-31T09:29:48;9.93;;;3.00;;
5475;SDS011;2760;50.000;9.194;2023-08-31T09:32:16;4.33;;;2.90;;
5475;SDS011;2760;50.000;9.194;2023-08-31T09:34:46;5.57;;;2.30;;
5475;SDS011;2760;50.000;9.194;2023-08-31T09:37:15;8.87;;;2.93;;
5475;SDS011;2760;50.000;9.194;2023-08-31T09:39:42;4.47;;;2.97;;
5475;SDS011;2760;50.000;9.194;2023-08-31T09:42:10;7.23;;;2.87;;
5475;SDS011;2760;50.000;9.194;2023-08-31T09:44:39;5.73;;;2.50;;
5475;SDS011;2760;50.000;9.194;2023-08-31T09:47:07;6.40;;;2.90;;
5475;SDS011;2760;50.000;9.194;2023-08-31T09:49:35;5.17;;;2.67;;
5475;SDS011;2760;50.000;9.194;2023-08-31T09:52:06;6.47;;;2.37;;
5475;SDS011;2760;50.000;9.194;2023-08-31T09:54:35;7.23;;;2.70;;
5475;SDS011;2760;50.000;9.194;2023-08-31T09:57:03;3.93;;;2.27;;
5475;SDS011;2760;50.000;9.194;2023-08-31T09:59:31;4.50;;;2.13;;
5475;SDS011;2760;50.000;9.194;2023-08-31T10:01:59;5.50;;;2.33;;
5475;SDS011;2760;50.000;9.194;2023-08-31T10:04:29;7.13;;;2.63;;
5475;SDS011;2760;50.000;9.194;2023-08-31T10:07:00;5.13;;;2.57;;
5475;SDS011;2760;50.000;9.194;2023-08-31T10:09:32;8.67;;;2.30;;
5475;SDS011;2760;50.000;9.194;2023-08-31T10:11:59;4.77;;;2.67;;
5475;SDS011;2760;50.000;9.194;2023-08-31T10:14:29;9.13;;;2.50;;
5475;SDS011;2760;50.000;9.194;2023-08-31T10:16:57;6.17;;;3.07;;
5475;SDS011;2760;50.000;9.194;2023-08-31T10:19:25;4.00;;;2.67;;
5475;SDS011;2760;50.000;9.194;2023-08-31T10:21:52;3.27;;;2.30;;
5475;SDS011;2760;50.000;9.194;2023-08-31T10:27:23;4.30;;;2.27;;
5475;SDS011;2760;50.000;9.194;2023-08-31T10:29:51;3.90;;;2.23;;
5475;SDS011;2760;50.000;9.194;2023-08-31T10:32:18;5.33;;;2.43;;
5475;SDS011;2760;50.000;9.194;2023-08-31T10:37:34;7.57;;;2.47;;
5475;SDS011;2760;50.000;9.194;2023-08-31T10:40:07;2.83;;;2.40;;
5475;SDS011;2760;50.000;9.194;2023-08-31T10:42:47;4.53;;;2.10;;
5475;SDS011;2760;50.000;9.194;2023-08-31T10:45:44;10.27;;;3.27;;
5475;SDS011;2760;50.000;9.194;2023-08-31T10:48:12;7.47;;;2.97;;
5475;SDS011;2760;50.000;9.194;2023-08-31T10:50:40;11.73;;;2.43;;
5475;SDS011;2760;50.000;9.194;2023-08-31T10:53:08;3.50;;;2.23;;
5475;SDS011;2760;50.000;9.194;2023-08-31T10:55:49;7.37;;;2.13;;
5475;SDS011;2760;50.000;9.194;2023-08-31T10:58:19;4.13;;;2.20;;
5475;SDS011;2760;50.000;9.194;2023-08-31T11:00:47;3.63;;;2.20;;
5475;SDS011;2760;50.000;9.194;2023-08-31T11:03:18;5.37;;;2.10;;
5475;SDS011;2760;50.000;9.194;2023-08-31T11:05:52;4.50;;;2.57;;
5475;SDS011;2760;50.000;9.194;2023-08-31T11:08:22;4.63;;;2.27;;
5475;SDS011;2760;50.000;9.194;2023-08-31T11:10:51;4.30;;;2.20;;
5475;SDS011;2760;50.000;9.194;2023-08-31T11:13:20;7.13;;;2.50;;
5475;SDS011;2760;50.000;9.194;2023-08-31T11:15:49;6.90;;;2.30;;
5475;SDS011;2760;50.000;9.194;2023-08-31T11:18:17;5.57;;;2.30;;
5475;SDS011;2760;50.000;9.194;2023-08-31T11:20:47;4.67;;;1.93;;
5475;SDS011;2760;50.000;9.194;2023-08-31T11:23:15;4.90;;;1.93;;
5475;SDS011;2760;50.000;9.194;2023-08-31T11:25:42;5.83;;;2.00;;
5475;SDS011;2760;50.000;9.194;2023-08-31T11:28:10;6.33;;;2.40;;
5475;SDS011;2760;50.000;9.194;2023-08-31T11:30:39;4.20;;;2.33;;
5475;SDS011;2760;50.000;9.194;2023-08-31T11:33:09;15.30;;;3.33;;
5475;SDS011;2760;50.000;9.194;2023-08-31T11:35:39;14.90;;;2.30;;
5475;SDS011;2760;50.000;9.194;2023-08-31T11:38:11;4.80;;;2.40;;
5475;SDS011;2760;50.000;9.194;2023-08-31T11:40:39;4.70;;;2.20;;
5475;SDS011;2760;50.000;9.194;2023-08-31T11:43:06;4.60;;;2.80;;
5475;SDS011;2760;50.000;9.194;2023-08-31T11:45:34;2.13;;;1.57;;
5475;SDS011;2760;50.000;9.194;2023-08-31T11:48:04;4.30;;;1.80;;
5475;SDS011;2760;50.000;9.194;2023-08-31T11:50:32;2.47;;;2.00;;
5475;SDS011;2760;50.000;9.194;2023-08-31T11:53:00;11.70;;;2.33;;
5475;SDS011;2760;50.000;9.194;2023-08-31T11:55:27;5.13;;;1.80;;
5475;SDS011;2760;50.000;9.194;2023-08-31T11:57:55;4.20;;;1.97;;
5475;SDS011;2760;50.000;9.194;2023-08-31T12:00:22;3.47;;;1.80;;
5475;SDS011;2760;50.000;9.194;2023-08-31T12:02:55;3.70;;;2.13;;
5475;SDS011;2760;50.000;9.194;2023-08-31T12:05:26;3.23;;;2.07;;
5475;SDS011;2760;50.000;9.194;2023-08-31T12:07:54;3.87;;;1.90;;
5475;SDS011;2760;50.000;9.194;2023-08-31T12:10:23;1.90;;;1.70;;
5475;SDS011;2760;50.000;9.194;2023-08-31T12:12:51;2.60;;;2.10;;
5475;SDS011;2760;50.000;9.194;2023-08-31T12:15:20;2.77;;;2.40;;
5475;SDS011;2760;50.000;9.194;2023-08-31T12:17:48;6.90;;;2.20;;
5475;SDS011;2760;50.000;9.194;2023-08-31T12:20:24;2.83;;;1.93;;
5475;SDS011;2760;50.000;9.194;2023-08-31T12:22:53;5.07;;;2.07;;
5475;SDS011;2760;50.000;9.194;2023-08-31T12:25:20;6.43;;;2.20;;
5475;SDS011;2760;50.000;9.194;2023-08-31T12:27:47;5.03;;;2.07;;
5475;SDS011;2760;50.000;9.194;2023-08-31T12:30:15;5.47;;;2.13;;
5475;SDS011;2760;50.000;9.194;2023-08-31T12:32:42;4.83;;;2.30;;
5475;SDS011;2760;50.000;9.194;2023-08-31T12:35:09;2.20;;;1.77;;
5475;SDS011;2760;50.000;9.194;2023-08-31T12:37:41;3.90;;;2.00;;
5475;SDS011;2760;50.000;9.194;2023-08-31T12:40:08;5.17;;;1.73;;
5475;SDS011;2760;50.000;9.194;2023-08-31T12:42:36;2.30;;;2.00;;
5475;SDS011;2760;50.000;9.194;2023-08-31T12:45:03;3.80;;;2.10;;
5475;SDS011;2760;50.000;9.194;2023-08-31T12:47:31;3.07;;;2.37;;
5475;SDS011;2760;50.000;9.194;2023-08-31T12:49:58;7.53;;;2.00;;
5475;SDS011;2760;50.000;9.194;2023-08-31T12:52:27;4.40;;;2.20;;
5475;SDS011;2760;50.000;9.194;2023-08-31T12:54:56;12.50;;;2.37;;
5475;SDS011;2760;50.000;9.194;2023-08-31T12:57:23;2.43;;;1.90;;
5475;SDS011;2760;50.000;9.194;2023-08-31T12:59:50;5.70;;;2.50;;
5475;SDS011;2760;50.000;9.194;2023-08-31T13:02:17;2.83;;;1.77;;
5475;SDS011;2760;50.000;9.194;2023-08-31T13:04:45;7.43;;;2.70;;
5475;SDS011;2760;50.000;9.194;2023-08-31T13:07:12;11.40;;;3.00;;
5475;SDS011;2760;50.000;9.194;2023-08-31T13:09:39;3.23;;;1.93;;
5475;SDS011;2760;50.000;9.194;2023-08-31T13:12:08;5.03;;;2.10;;
5475;SDS011;2760;50.000;9.194;2023-08-31T13:14:35;4.37;;;2.17;;
5475;SDS011;2760;50.000;9.194;2023-08-31T13:17:04;5.00;;;2.30;;
5475;SDS011;2760;50.000;9.194;2023-08-31T13:19:32;3.43;;;1.80;;
5475;SDS011;2760;50.000;9.194;2023-08-31T13:21:59;4.93;;;2.70;;
5475;SDS011;2760;50.000;9.194;2023-08-31T13:24:26;3.30;;;2.27;;
5475;SDS011;2760;50.000;9.194;2023-08-31T13:26:53;3.30;;;1.70;;
5475;SDS011;2760;50.000;9.194;2023-08-31T13:29:23;2.40;;;1.80;;
5475;SDS011;2760;50.000;9.194;2023-08-31T13:31:50;2.83;;;2.07;;
5475;SDS011;2760;50.000;9.194;2023-08-31T13:34:17;4.10;;;2.00;;
5475;SDS011;2760;50.000;9.194;2023-08-31T13:36:45;5.20;;;2.27;;
5475;SDS011;2760;50.000;9.194;2023-08-31T13:39:26;4.70;;;2.27;;
5475;SDS011;2760;50.000;9.194;2023-08-31T13:41:53;3.50;;;2.00;;
5475;SDS011;2760;50.000;9.194;2023-08-31T13:44:22;6.50;;;2.20;;
5475;SDS011;2760;50.000;9.194;2023-08-31T13:46:49;3.90;;;2.27;;
5475;SDS011;2760;50.000;9.194;2023-08-31T13:49:17;6.37;;;2.03;;
5475;SDS011;2760;50.000;9.194;2023-08-31T13:51:44;5.33;;;2.00;;
5475;SDS011;2760;50.000;9.194;2023-08-31T13:54:12;5.90;;;1.80;;
5475;SDS011;2760;50.000;9.194;2023-08-31T13:56:39;5.10;;;1.80;;
5475;SDS011;2760;50.000;9.194;2023-08-31T13:59:08;5.70;;;1.93;;
5475;SDS011;2760;50.000;9.194;2023-08-31T14:01:40;8.37;;;2.23;;
5475;SDS011;2760;50.000;9.194;2023-08-31T14:04:08;4.27;;;2.20;;
5475;SDS011;2760;50.000;9.194;2023-08-31T14:06:35;11.40;;;2.13;;
5475;SDS011;2760;50.000;9.194;2023-08-31T14:09:02;2.60;;;2.00;;
5475;SDS011;2760;50.000;9.194;2023-08-31T14:11:30;5.50;;;2.50;;
5475;SDS011;2760;50.000;9.194;2023-08-31T14:14:01;10.93;;;2.53;;
5475;SDS011;2760;50.000;9.194;2023-08-31T14:16:31;5.33;;;2.10;;
5475;SDS011;2760;50.000;9.194;2023-08-31T14:19:00;5.03;;;2.33;;
5475;SDS011;2760;50.000;9.194;2023-08-31T14:21:27;5.50;;;2.57;;
5475;SDS011;2760;50.000;9.194;2023-08-31T14:23:54;6.10;;;2.30;;
5475;SDS011;2760;50.000;9.194;2023-08-31T14:26:21;12.50;;;2.87;;
5475;SDS011;2760;50.000;9.194;2023-08-31T14:28:49;4.13;;;2.43;;
5475;SDS011;2760;50.000;9.194;2023-08-31T14:31:17;10.67;;;2.50;;
5475;SDS011;2760;50.000;9.194;2023-08-31T14:33:47;6.70;;;2.70;;
5475;SDS011;2760;50.000;9.194;2023-08-31T14:36:20;6.73;;;2.87;;
5475;SDS011;2760;50.000;9.194;2023-08-31T14:38:48;4.40;;;2.23;;
5475;SDS011;2760;50.000;9.194;2023-08-31T14:41:19;7.80;;;2.80;;
5475;SDS011;2760;50.000;9.194;2023-08-31T14:43:46;3.87;;;2.30;;
5475;SDS011;2760;50.000;9.194;2023-08-31T14:46:13;6.53;;;2.60;;
5475;SDS011;2760;50.000;9.194;2023-08-31T14:48:40;5.17;;;2.40;;
5475;SDS011;2760;50.000;9.194;2023-08-31T14:51:08;4.60;;;2.10;;
5475;SDS011;2760;50.000;9.194;2023-08-31T14:53:38;5.73;;;2.70;;
5475;SDS011;2760;50.000;9.194;2023-08-31T14:56:06;6.60;;;2.90;;
5475;SDS011;2760;50.000;9.194;2023-08-31T14:58:33;6.93;;;2.20;;
5475;SDS011;2760;50.000;9.194;2023-08-31T15:01:01;5.23;;;2.33;;
5475;SDS011;2760;50.000;9.194;2023-08-31T15:03:28;5.83;;;2.47;;
5475;SDS011;2760;50.000;9.194;2023-08-31T15:05:56;8.33;;;2.67;;
5475;SDS011;2760;50.000;9.194;2023-08-31T15:08:34;7.43;;;2.80;;
5475;SDS011;2760;50.000;9.194;2023-08-31T15:11:07;7.97;;;2.80;;
5475;SDS011;2760;50.000;9.194;2023-08-31T15:13:34;5.60;;;2.50;;
5475;SDS011;2760;50.000;9.194;2023-08-31T15:16:03;5.60;;;2.50;;
5475;SDS011;2760;50.000;9.194;2023-08-31T15:18:30;10.40;;;2.80;;
5475;SDS011;2760;50.000;9.194;2023-08-31T15:20:58;3.47;;;2.23;;
5475;SDS011;2760;50.000;9.194;2023-08-31T15:23:26;7.10;;;2.53;;
5475;SDS011;2760;50.000;9.194;2023-08-31T15:25:58;5.47;;;2.17;;
5475;SDS011;2760;50.000;9.194;2023-08-31T15:28:29;7.20;;;2.30;;
5475;SDS011;2760;50.000;9.194;2023-08-31T15:30:56;4.87;;;2.57;;
5475;SDS011;2760;50.000;9.194;2023-08-31T15:33:23;6.30;;;2.87;;
5475;SDS011;2760;50.000;9.194;2023-08-31T15:35:50;9.30;;;2.50;;